Arthur, Tennessee
Current Conditions -  °F | °C
As of 7:55 AM on Tuesday 21 Oct 2014 (Local Time) from K1A6 Reporting Station
Clear Clear  
Wind Chill: 43°   Ceiling: Unl
Heat Index: 43°   Visibility: 7mi
Dew Point: 43°   Wind: 0mph
Humidity: 99%   Direction: NA
Pressure: 30"   Gusts: NA
Location:  36.55°N, 83.67°W
Report Text: K1A6 211155Z AUTO 00000KT 7SM CLR 06/06 A3000 RMK AO2 T00610060 10087 20060
Loading
Personal Weather Stations






























Interactive Weather Map
Tropical Storm Tracking
New forecast layout! Learn more

10-Day Weather Forecast

Advertisements
Track Severe Weather on mobile